Alipasa, Turkey

5:17 AM +03 on June 27, 2017 (GMT +0300)
Fenerköy Köyü | | Change Station

Elev 305 ft 41.14 °N, 28.28 °E | Updated 8 minutes ago

Clear
Clear
67.6 °F
Feels Like 67.6 °F
N
0.6
Wind Variable Wind from West
Gusts 1.9 mph

Today
High -- | Low -- °F
--% Chance of Precip.
Yesterday
High -- | Low -- °F
Precip. -- in
Pressure 29.89 in
Visibility -9999.0 miles
Clouds
Dew Point 62 °F
Humidity 83%
Rainfall 0.00 in
Snow Depth Not available.
5:36 AM 8:43 PM
Waxing Crescent, 12% visible
METAR LTBU 270150Z 33002KT CAVOK 18/17 Q1012 RMK RWY23 33003KT
Pressure 29.89 in
Visibility -9999.0 miles
Clouds
Dew Point 62 °F
Humidity 83%
Rainfall 0.00 in
Snow Depth Not available.
5:36 AM 8:43 PM
Waxing Crescent, 12% visible
METAR LTBU 270150Z 33002KT CAVOK 18/17 Q1012 RMK RWY23 33003KT

Get Severe Weather Alerts

Thanks for signing up!

Be on the lookout for a verification email in your inbox.

You'll start receiving the daily forecast at 6 AM.

×

10-Day Weather Forecast

×

Almanac

Astronomy

Jun. 27, 2017 Rise Set
Actual Time
Civil Twilight
Nautical Twilight
Astronomical Twilight
Moon
Length of Visible Light
Length of Day
Tomorrow will be .
, % of the Moon is Illuminated

Today's Extremes

Country Highs Country Lows

Community

WunderPhotos

Category 6

Welcome to Category 6. This is the collective home for Weather Underground's featured writeups by Dr. Jeff Masters (right), Bob Henson (left), Chris Burt, and other regular contributors.

Nearby

Air Quality

  Air Quality AQ Index Pollutant
Not available.

Snow Depth

Station Depth Elevation

Earthquake Activity

City Distance Mag. Time & Date
Minimum magnitude displayed is 2.5.

Coastal Water Temperatures

Place Temperature

Stations

Nearby Weather Stations

Station Location Temp. Windchill Dew Point Humidity Wind Precip. Elev Updated Type